This is the latest recevied weather packets stored in our database for station/object SQ9IWE-13. If no packets are shown the sender has not sent any weather packets the latest 10 day(s).
| Time | Temp. | Humidity | Pressure | Rain* | Wind** | Luminosity | Snow |
|---|---|---|---|---|---|---|---|
| 1777522201 | -1.11° C | 86% | 1030 hPa | - | - | - | - |
| 1777521601 | -1.67° C | 89% | 1029.9 hPa | - | - | - | - |
| 1777521001 | -1.67° C | 89% | 1029.9 hPa | - | - | - | - |
| 1777520401 | -1.67° C | 90% | 1029.9 hPa | - | - | - | - |
| 1777519801 | -2.22° C | 90% | 1029.8 hPa | - | - | - | - |
| 1777519201 | -2.22° C | 90% | 1029.9 hPa | - | - | - | - |
| 1777518601 | -2.22° C | 90% | 1029.9 hPa | - | - | - | - |
| 1777518001 | -2.22° C | 89% | 1029.8 hPa | - | - | - | - |
| 1777517401 | -2.22° C | 89% | 1029.8 hPa | - | - | - | - |
| 1777516801 | -1.67° C | 89% | 1029.7 hPa | - | - | - | - |
| 1777516201 | -1.67° C | 89% | 1029.7 hPa | - | - | - | - |
| 1777515601 | -1.67° C | 88% | 1029.7 hPa | - | - | - | - |
| 1777515001 | -1.67° C | 88% | 1029.6 hPa | - | - | - | - |
| 1777514401 | -1.67° C | 87% | 1029.6 hPa | - | - | - | - |
| 1777513801 | -1.67° C | 87% | 1029.6 hPa | - | - | - | - |
| 1777512601 | -1.67° C | 87% | 1029.5 hPa | - | - | - | - |
| 1777512001 | -1.67° C | 86% | 1029.5 hPa | - | - | - | - |
| 1777511401 | -1.11° C | 87% | 1029.3 hPa | - | - | - | - |
| 1777510801 | -1.11° C | 88% | 1029.4 hPa | - | - | - | - |
| 1777510201 | -1.11° C | 87% | 1029.4 hPa | - | - | - | - |
| 1777509001 | -1.11° C | 86% | 1029.4 hPa | - | - | - | - |
| 1777508401 | -1.11° C | 85% | 1029.4 hPa | - | - | - | - |
| 1777507801 | -0.56° C | 84% | 1029.3 hPa | - | - | - | - |
| 1777506001 | -0.56° C | 81% | 1029.4 hPa | - | - | - | - |
| 1777490401 | 3.33° C | 54% | 1028.3 hPa | - | - | - | - |
* Rain since midnight (hover to see other rain measurements)
** Current wind speed in m/s (hover to see current wind gust speed)